Decatur Airport
KDEC : rendu visible

Aérodrome :











RETROUVEZ-NOUS SUR...

 
LOGIN :

S'inscrire | Disclaimer

   EN    FR    IT 

 









Légende :    VFR   VFR Marginal   IFR   IFR Intensif   IFR Très Intensif
Visi : 
Plafond : 
>= 8 km
>= 3000ft
5 à 8 km
1000 à 3000 ft
1500m à 5 km
500 à 1000 ft
800 à 1500m
200 à 500 ft
< 800m
< 200 ft
Symboles :   Orages  Brouillard  Fortes neiges  Fortes précipitations  Vent > 20 kt






- Altitude de l'aérodrome : 682 ft
- Code IATA : DEC


KDEC - Decatur

DERNIER METAR :
  • 162254Z 09007KT 6SM HZ CLR 01/M02 A3023 RMK AO2 SLP243 T00111022

METARs EXPIRÉS :
  • 162154Z 09008KT 7SM CLR 05/M01 A3024 RMK AO2 SLP247 T00501006
  • 162054Z 09008KT 8SM CLR 06/M01 A3026 RMK AO2 SLP252 T00611011 56020

TAF KDEC
Valide du 17 à 00h jusqu'au 18 à 00h UTC


162320Z 1700/1724 10005KT P6SM FEW250
FM171300 15005KT P6SM OVC150
FM171700 17007KT P6SM OVC100
FM172300 VRB04KT P6SM VCSH OVC080



MET'MAP, la Météo Aéronautique d'un coup d'oeil ! - Copyright ORBIFLY Décembre 2007 - Disclaimer

ORBIFLY MET'MAP TEAM :

Programmation & Développement : Alexandra Zaïnal
Conception & Développement : Baudouin d'Aumeries
Co-Programmation & Développement : Marc-Olivier Méhu
Soutien technique & logistique : Manuel Goepfert

Contact : metmap@orbifly.com




SOURCES & CREDITS :

   NOAA       Earth
Advisory